Time;durP1;ratioP1;P1;durP2;ratioP2;P2;SDS_P1;SDS_P2;PMS_P1;PMS_P2;Temp;Humidity;BMP_temperature;BMP_pressure;BME280_temperature;BME280_humidity;BME280_pressure;Samples;Min_cycle;Max_cycle;Signal;HPM_P1;HPM_P2
2023/04/18 00:00:47;;;;;;;18.67;11.20;;;;;;;;;;5006270;28;20780;-75
2023/04/18 00:03:14;;;;;;;14.57;10.65;;;;;;;;;;5011241;28;20381;-76
2023/04/18 00:05:40;;;;;;;14.95;9.63;;;;;;;;;;5043480;28;20037;-76
2023/04/18 00:08:07;;;;;;;15.10;9.27;;;;;;;;;;5026032;28;20036;-76
2023/04/18 00:10:33;;;;;;;14.45;9.85;;;;;;;;;;5005796;28;20099;-76
2023/04/18 00:12:59;;;;;;;11.98;9.05;;;;;;;;;;5023100;28;20044;-76
2023/04/18 00:15:27;;;;;;;14.23;8.50;;;;;;;;;;5044268;28;20811;-75
2023/04/18 00:17:55;;;;;;;12.40;9.07;;;;;;;;;;5025132;28;20080;-76
2023/04/18 00:20:24;;;;;;;10.27;8.23;;;;;;;;;;5042081;28;20044;-76
2023/04/18 00:22:52;;;;;;;13.90;8.18;;;;;;;;;;5038985;28;20511;-76
2023/04/18 00:25:18;;;;;;;13.00;9.05;;;;;;;;;;5022444;28;20040;-76
2023/04/18 00:27:44;;;;;;;14.30;8.82;;;;;;;;;;5023696;28;20135;-75
2023/04/18 00:30:10;;;;;;;17.88;9.45;;;;;;;;;;5023739;28;20072;-76
2023/04/18 00:32:37;;;;;;;13.32;8.93;;;;;;;;;;5025970;28;20136;-76
2023/04/18 00:35:03;;;;;;;12.85;9.15;;;;;;;;;;5024901;28;20122;-76
2023/04/18 00:37:29;;;;;;;16.17;8.98;;;;;;;;;;5011037;28;20044;-76
2023/04/18 00:39:55;;;;;;;12.73;9.02;;;;;;;;;;5023939;28;20509;-76
2023/04/18 00:42:23;;;;;;;12.13;8.90;;;;;;;;;;5022639;28;20040;-76
2023/04/18 00:44:49;;;;;;;16.63;8.88;;;;;;;;;;5007849;28;20131;-75
2023/04/18 00:47:18;;;;;;;17.13;8.50;;;;;;;;;;5041720;28;22122;-76
2023/04/18 00:49:45;;;;;;;11.20;8.80;;;;;;;;;;5020702;28;20052;-76
2023/04/18 00:52:15;;;;;;;14.63;8.43;;;;;;;;;;5023922;28;20047;-76
2023/04/18 00:54:42;;;;;;;14.45;8.70;;;;;;;;;;5043701;28;20903;-76
2023/04/18 00:57:08;;;;;;;12.02;8.65;;;;;;;;;;5021836;28;20079;-76
2023/04/18 00:59:35;;;;;;;12.80;8.98;;;;;;;;;;5025076;28;20056;-76
2023/04/18 01:02:02;;;;;;;14.57;8.57;;;;;;;;;;5022504;28;20121;-76
2023/04/18 01:04:28;;;;;;;13.73;7.97;;;;;;;;;;5025515;28;22021;-76
2023/04/18 01:06:54;;;;;;;10.45;8.05;;;;;;;;;;5025357;28;20127;-76
2023/04/18 01:09:21;;;;;;;12.30;7.95;;;;;;;;;;5044654;28;20040;-76
2023/04/18 01:11:47;;;;;;;17.63;8.02;;;;;;;;;;5024968;28;20044;-76
2023/04/18 01:14:13;;;;;;;8.57;7.35;;;;;;;;;;5024975;28;20048;-76
2023/04/18 01:16:39;;;;;;;11.25;7.55;;;;;;;;;;5023139;28;20048;-76
2023/04/18 01:19:05;;;;;;;13.07;8.10;;;;;;;;;;5025098;28;20131;-76
2023/04/18 01:21:34;;;;;;;9.98;7.53;;;;;;;;;;5023691;28;20059;-76
2023/04/18 01:24:07;;;;;;;15.68;7.90;;;;;;;;;;5040991;28;20048;-76
2023/04/18 01:26:33;;;;;;;11.93;7.53;;;;;;;;;;5023270;28;20130;-76
2023/04/18 01:28:59;;;;;;;8.90;7.07;;;;;;;;;;5024028;28;20131;-76
2023/04/18 01:31:25;;;;;;;12.60;6.85;;;;;;;;;;5042141;28;20047;-75
2023/04/18 01:33:51;;;;;;;10.75;7.93;;;;;;;;;;5041988;28;20392;-76
2023/04/18 01:36:18;;;;;;;12.35;6.32;;;;;;;;;;5043277;28;20135;-76
2023/04/18 01:38:44;;;;;;;8.82;7.18;;;;;;;;;;5042755;28;20048;-76
2023/04/18 01:41:10;;;;;;;14.10;7.95;;;;;;;;;;5024920;28;20524;-76
2023/04/18 01:43:36;;;;;;;10.85;7.40;;;;;;;;;;5024500;28;20045;-76
2023/04/18 01:46:02;;;;;;;8.57;6.88;;;;;;;;;;5025512;28;20052;-76
2023/04/18 01:48:28;;;;;;;11.82;7.85;;;;;;;;;;5022745;28;20051;-76
2023/04/18 01:50:54;;;;;;;10.55;8.57;;;;;;;;;;5042915;28;20114;-76
2023/04/18 01:53:22;;;;;;;11.68;7.25;;;;;;;;;;5021133;28;20098;-76
2023/04/18 01:55:49;;;;;;;11.55;7.18;;;;;;;;;;5040192;28;20060;-75
2023/04/18 01:58:17;;;;;;;10.07;6.50;;;;;;;;;;5040973;28;20131;-76
2023/04/18 02:00:43;;;;;;;11.00;7.32;;;;;;;;;;5019343;28;20036;-75
2023/04/18 02:03:09;;;;;;;9.90;7.50;;;;;;;;;;5017712;28;20131;-76
2023/04/18 02:05:36;;;;;;;8.05;7.10;;;;;;;;;;5017545;28;21232;-76
2023/04/18 02:08:02;;;;;;;10.75;6.90;;;;;;;;;;5020955;28;20043;-76
2023/04/18 02:10:28;;;;;;;10.63;7.25;;;;;;;;;;5022204;28;20135;-75
2023/04/18 02:12:54;;;;;;;10.95;7.03;;;;;;;;;;5022221;28;20092;-75
2023/04/18 02:15:20;;;;;;;10.13;6.97;;;;;;;;;;5041378;28;20886;-75
2023/04/18 02:17:47;;;;;;;7.78;6.57;;;;;;;;;;5018011;28;20047;-76
2023/04/18 02:20:14;;;;;;;8.95;7.15;;;;;;;;;;4994496;28;20163;-75
2023/04/18 02:22:40;;;;;;;11.85;7.57;;;;;;;;;;5030827;28;20849;-76
2023/04/18 02:25:06;;;;;;;9.07;7.05;;;;;;;;;;5013331;28;20047;-76
2023/04/18 02:27:32;;;;;;;9.05;6.82;;;;;;;;;;5030502;28;20040;-76
2023/04/18 02:29:59;;;;;;;11.23;7.03;;;;;;;;;;5011072;28;20041;-76
2023/04/18 02:32:25;;;;;;;12.73;7.20;;;;;;;;;;5030439;28;20036;-75
2023/04/18 02:34:51;;;;;;;11.48;7.43;;;;;;;;;;5008067;28;20053;-76
2023/04/18 02:37:17;;;;;;;10.27;7.32;;;;;;;;;;5032813;28;20040;-75
2023/04/18 02:39:43;;;;;;;10.43;7.10;;;;;;;;;;5016344;28;20123;-76
2023/04/18 02:42:09;;;;;;;8.55;6.50;;;;;;;;;;5040036;28;21330;-75
2023/04/18 02:44:35;;;;;;;9.15;6.50;;;;;;;;;;5036657;28;20043;-75
2023/04/18 02:47:01;;;;;;;9.82;6.90;;;;;;;;;;5041118;28;20885;-76
2023/04/18 02:49:31;;;;;;;8.75;7.25;;;;;;;;;;5042944;28;20049;-76
2023/04/18 02:51:57;;;;;;;11.40;7.30;;;;;;;;;;5023442;28;20044;-76
2023/04/18 02:54:23;;;;;;;9.30;7.07;;;;;;;;;;5021146;28;20053;-76
2023/04/18 02:56:51;;;;;;;8.82;6.53;;;;;;;;;;5021613;28;20049;-76
2023/04/18 02:59:17;;;;;;;9.88;7.07;;;;;;;;;;5040924;28;20132;-76
2023/04/18 03:01:43;;;;;;;9.82;7.25;;;;;;;;;;5024779;28;20052;-76
2023/04/18 03:04:09;;;;;;;7.78;6.97;;;;;;;;;;5040141;28;20044;-75
2023/04/18 03:06:35;;;;;;;14.88;8.43;;;;;;;;;;5020646;28;20053;-76
2023/04/18 03:09:02;;;;;;;9.07;7.22;;;;;;;;;;5021449;28;20052;-75
2023/04/18 03:11:28;;;;;;;9.20;7.20;;;;;;;;;;5020737;28;20041;-74
2023/04/18 03:13:54;;;;;;;19.48;7.32;;;;;;;;;;5042287;28;20481;-74
2023/04/18 03:16:20;;;;;;;10.50;7.35;;;;;;;;;;5020635;28;20045;-74
2023/04/18 03:18:47;;;;;;;9.85;7.60;;;;;;;;;;5045107;28;20044;-76
2023/04/18 03:21:13;;;;;;;12.20;7.90;;;;;;;;;;5041486;28;20045;-75
2023/04/18 03:23:40;;;;;;;10.80;7.25;;;;;;;;;;5020226;28;20124;-75
2023/04/18 03:26:06;;;;;;;10.88;7.88;;;;;;;;;;5039244;28;22172;-75
2023/04/18 03:28:33;;;;;;;11.40;7.55;;;;;;;;;;5018799;28;21336;-75
2023/04/18 03:30:59;;;;;;;12.00;8.25;;;;;;;;;;5036550;28;20101;-75
2023/04/18 03:33:27;;;;;;;10.50;7.45;;;;;;;;;;5036529;28;20169;-75
2023/04/18 03:35:53;;;;;;;10.65;7.50;;;;;;;;;;5033440;28;20044;-75
2023/04/18 03:38:20;;;;;;;13.48;7.97;;;;;;;;;;5044591;28;20044;-76
2023/04/18 03:40:46;;;;;;;13.50;8.32;;;;;;;;;;5005794;28;20676;-76
2023/04/18 03:43:12;;;;;;;12.48;7.97;;;;;;;;;;5022626;28;20086;-76
2023/04/18 03:45:38;;;;;;;12.90;8.68;;;;;;;;;;5022923;28;20048;-75
2023/04/18 03:48:05;;;;;;;14.77;8.23;;;;;;;;;;5028463;28;20044;-76
2023/04/18 03:50:31;;;;;;;12.10;8.57;;;;;;;;;;5048903;28;20056;-76
2023/04/18 03:52:57;;;;;;;15.18;9.23;;;;;;;;;;5052205;28;20091;-76
2023/04/18 03:55:23;;;;;;;12.45;8.52;;;;;;;;;;5050445;28;20052;-76
2023/04/18 03:57:49;;;;;;;13.77;9.20;;;;;;;;;;5030983;28;20064;-76
2023/04/18 04:00:15;;;;;;;11.65;8.02;;;;;;;;;;5023212;28;20067;-75
2023/04/18 04:02:41;;;;;;;12.48;9.27;;;;;;;;;;5045009;28;20048;-76
2023/04/18 04:05:07;;;;;;;14.93;9.40;;;;;;;;;;5046230;28;20045;-76
2023/04/18 04:07:33;;;;;;;13.02;9.38;;;;;;;;;;5045619;28;20040;-76
2023/04/18 04:10:00;;;;;;;11.65;9.38;;;;;;;;;;5020401;28;20036;-76
2023/04/18 04:12:26;;;;;;;13.85;9.57;;;;;;;;;;5016655;28;20197;-76
2023/04/18 04:14:53;;;;;;;13.07;9.40;;;;;;;;;;5022027;28;20645;-74
2023/04/18 04:17:19;;;;;;;13.60;9.43;;;;;;;;;;5022582;28;20090;-74
2023/04/18 04:19:45;;;;;;;15.25;10.27;;;;;;;;;;5025615;28;20414;-74
2023/04/18 04:22:11;;;;;;;13.73;9.50;;;;;;;;;;5023583;28;20902;-74
2023/04/18 04:24:38;;;;;;;12.27;9.35;;;;;;;;;;5040648;28;20100;-74
2023/04/18 04:27:04;;;;;;;14.27;9.75;;;;;;;;;;5023384;28;20052;-74
2023/04/18 04:29:31;;;;;;;14.40;9.75;;;;;;;;;;5020592;28;20048;-73
2023/04/18 04:31:58;;;;;;;12.35;9.30;;;;;;;;;;5042159;28;20051;-73
2023/04/18 04:34:24;;;;;;;12.10;9.65;;;;;;;;;;5025557;28;20044;-73
2023/04/18 04:36:50;;;;;;;12.93;9.07;;;;;;;;;;5025131;28;20037;-73
2023/04/18 04:39:16;;;;;;;10.60;9.23;;;;;;;;;;5026781;28;20041;-73
2023/04/18 04:41:42;;;;;;;13.27;9.73;;;;;;;;;;5042400;28;20075;-73
2023/04/18 04:44:08;;;;;;;12.13;8.93;;;;;;;;;;5022154;28;20056;-73
2023/04/18 04:46:38;;;;;;;15.65;9.73;;;;;;;;;;5044670;28;20049;-73
2023/04/18 04:49:04;;;;;;;11.80;9.40;;;;;;;;;;5042729;28;20049;-74
2023/04/18 04:51:30;;;;;;;14.13;10.30;;;;;;;;;;5029389;28;20052;-74
2023/04/18 04:53:56;;;;;;;10.05;8.15;;;;;;;;;;5046773;28;20144;-74
2023/04/18 04:56:23;;;;;;;14.65;9.27;;;;;;;;;;5024993;28;20131;-74
2023/04/18 04:58:49;;;;;;;14.05;10.07;;;;;;;;;;5043017;28;20040;-74
2023/04/18 05:01:18;;;;;;;14.90;10.23;;;;;;;;;;5025013;28;20722;-74
2023/04/18 05:03:44;;;;;;;12.35;9.10;;;;;;;;;;5024874;28;20055;-74
2023/04/18 05:06:10;;;;;;;13.48;9.10;;;;;;;;;;5026751;28;20048;-74
2023/04/18 05:08:36;;;;;;;14.02;9.48;;;;;;;;;;5023963;28;20371;-74
2023/04/18 05:11:03;;;;;;;13.07;9.02;;;;;;;;;;5019238;28;20134;-74
2023/04/18 05:13:29;;;;;;;14.25;9.48;;;;;;;;;;5014760;28;20048;-74
2023/04/18 05:15:55;;;;;;;12.02;9.30;;;;;;;;;;5010927;28;20128;-74
2023/04/18 05:18:21;;;;;;;12.82;8.57;;;;;;;;;;4989587;28;20045;-75
2023/04/18 05:20:48;;;;;;;13.85;9.55;;;;;;;;;;5026971;28;20157;-74
2023/04/18 05:23:15;;;;;;;15.18;10.05;;;;;;;;;;5031591;28;20146;-74
2023/04/18 05:25:41;;;;;;;12.80;9.68;;;;;;;;;;5017295;28;20056;-74
2023/04/18 05:28:07;;;;;;;14.07;10.23;;;;;;;;;;5030983;28;20052;-74
2023/04/18 05:30:33;;;;;;;13.45;9.00;;;;;;;;;;5011653;28;20134;-74
2023/04/18 05:32:59;;;;;;;12.25;9.60;;;;;;;;;;5028495;28;20487;-74
2023/04/18 05:35:25;;;;;;;15.07;9.82;;;;;;;;;;5009112;28;20040;-75
2023/04/18 05:37:51;;;;;;;14.02;9.60;;;;;;;;;;5038095;28;20441;-75
2023/04/18 05:40:17;;;;;;;15.60;9.20;;;;;;;;;;5040285;28;20048;-74
2023/04/18 05:42:44;;;;;;;13.30;9.95;;;;;;;;;;5034020;28;20037;-74
2023/04/18 05:45:10;;;;;;;12.95;9.20;;;;;;;;;;5044841;28;20171;-72
2023/04/18 05:47:36;;;;;;;13.57;9.75;;;;;;;;;;5021467;28;20190;-71
2023/04/18 05:50:02;;;;;;;12.00;8.93;;;;;;;;;;5045694;28;20085;-71
2023/04/18 05:52:28;;;;;;;13.55;9.07;;;;;;;;;;5041613;28;20045;-71
2023/04/18 05:54:54;;;;;;;12.57;9.00;;;;;;;;;;5023304;28;20070;-72
2023/04/18 05:57:24;;;;;;;18.20;9.23;;;;;;;;;;5044572;28;20099;-71
2023/04/18 05:59:50;;;;;;;13.77;9.20;;;;;;;;;;5023266;28;20047;-71
2023/04/18 06:02:16;;;;;;;12.68;9.25;;;;;;;;;;5046956;28;20032;-71
2023/04/18 06:04:42;;;;;;;16.63;9.90;;;;;;;;;;5007296;28;20048;-71
2023/04/18 06:07:09;;;;;;;17.75;9.50;;;;;;;;;;5046260;28;20123;-71
2023/04/18 06:09:35;;;;;;;18.48;9.23;;;;;;;;;;5045523;28;20045;-71
2023/04/18 06:12:01;;;;;;;16.73;9.00;;;;;;;;;;5045207;28;20047;-71
2023/04/18 06:14:28;;;;;;;13.40;9.55;;;;;;;;;;5026715;28;20048;-71
2023/04/18 06:16:54;;;;;;;15.25;9.18;;;;;;;;;;5045939;28;20074;-71
2023/04/18 06:19:20;;;;;;;14.50;9.90;;;;;;;;;;5025020;28;20056;-71
2023/04/18 06:21:47;;;;;;;15.38;10.27;;;;;;;;;;5039542;28;20090;-71
2023/04/18 06:24:13;;;;;;;14.98;9.30;;;;;;;;;;5025612;28;20076;-71
2023/04/18 06:26:39;;;;;;;16.58;10.65;;;;;;;;;;5023313;28;20040;-71
2023/04/18 06:29:05;;;;;;;14.38;9.63;;;;;;;;;;5043302;28;20944;-71
2023/04/18 06:31:32;;;;;;;14.43;9.40;;;;;;;;;;5025096;28;22073;-71
2023/04/18 06:33:58;;;;;;;14.82;9.18;;;;;;;;;;5012675;28;20049;-71
2023/04/18 06:36:25;;;;;;;15.32;10.27;;;;;;;;;;5018788;28;20914;-71
2023/04/18 06:38:51;;;;;;;15.50;9.55;;;;;;;;;;5025962;28;20048;-71
2023/04/18 06:41:17;;;;;;;15.18;10.20;;;;;;;;;;5044343;28;20501;-71
2023/04/18 06:43:43;;;;;;;11.95;9.07;;;;;;;;;;5040321;28;20460;-71
2023/04/18 06:46:09;;;;;;;15.20;10.15;;;;;;;;;;5022700;28;20055;-71
2023/04/18 06:48:35;;;;;;;13.80;9.25;;;;;;;;;;5026610;28;20036;-70
2023/04/18 06:51:02;;;;;;;12.02;8.68;;;;;;;;;;5025513;28;20705;-71
2023/04/18 06:53:28;;;;;;;12.93;9.30;;;;;;;;;;5026560;28;20056;-71
2023/04/18 06:55:54;;;;;;;13.90;8.48;;;;;;;;;;5025955;28;20057;-71
2023/04/18 06:58:20;;;;;;;11.07;8.75;;;;;;;;;;5043146;28;20052;-71
2023/04/18 07:00:50;;;;;;;20.73;9.48;;;;;;;;;;5026545;28;20534;-71
2023/04/18 07:03:16;;;;;;;15.73;9.52;;;;;;;;;;5045523;28;20101;-71
2023/04/18 07:05:42;;;;;;;12.20;9.20;;;;;;;;;;5025067;28;20078;-71
2023/04/18 07:08:08;;;;;;;12.15;8.77;;;;;;;;;;5042066;28;20033;-71
2023/04/18 07:10:34;;;;;;;13.70;9.30;;;;;;;;;;5018539;28;21862;-71
2023/04/18 07:13:01;;;;;;;11.40;7.95;;;;;;;;;;5019862;28;20044;-71
2023/04/18 07:15:27;;;;;;;11.60;8.75;;;;;;;;;;5019707;28;20071;-72
2023/04/18 07:17:53;;;;;;;14.23;8.70;;;;;;;;;;5038307;28;20481;-72
2023/04/18 07:20:19;;;;;;;14.23;9.32;;;;;;;;;;5019319;28;20564;-72
2023/04/18 07:22:46;;;;;;;12.73;8.52;;;;;;;;;;5018139;28;20082;-71
2023/04/18 07:25:12;;;;;;;11.20;8.45;;;;;;;;;;5040243;28;20055;-72
2023/04/18 07:27:39;;;;;;;13.18;9.20;;;;;;;;;;5017272;28;20040;-72
2023/04/18 07:30:05;;;;;;;14.30;8.52;;;;;;;;;;5040050;28;20716;-71
2023/04/18 07:32:31;;;;;;;11.15;7.75;;;;;;;;;;5023861;28;20549;-71
2023/04/18 07:34:58;;;;;;;14.30;8.80;;;;;;;;;;5042709;28;20592;-71
2023/04/18 07:37:24;;;;;;;13.25;7.88;;;;;;;;;;5026446;28;20063;-71
2023/04/18 07:39:51;;;;;;;12.43;8.75;;;;;;;;;;5023209;28;20160;-71
2023/04/18 07:42:17;;;;;;;13.73;8.80;;;;;;;;;;5020162;28;20036;-71
2023/04/18 07:44:43;;;;;;;14.73;9.25;;;;;;;;;;5007524;28;20171;-71
2023/04/18 07:47:09;;;;;;;12.52;8.20;;;;;;;;;;5048344;28;20048;-71
2023/04/18 07:49:36;;;;;;;19.13;8.55;;;;;;;;;;5046671;28;20500;-71
2023/04/18 07:52:02;;;;;;;14.90;10.68;;;;;;;;;;5045308;28;20048;-71
2023/04/18 07:54:28;;;;;;;13.18;9.18;;;;;;;;;;5039934;28;20048;-71
2023/04/18 07:56:54;;;;;;;17.17;8.98;;;;;;;;;;5026635;28;20064;-71
2023/04/18 07:59:20;;;;;;;12.85;8.52;;;;;;;;;;5025656;28;20130;-71
2023/04/18 08:01:47;;;;;;;11.30;9.02;;;;;;;;;;5026345;28;20038;-71
2023/04/18 08:04:13;;;;;;;13.18;8.55;;;;;;;;;;5043187;28;20044;-71
2023/04/18 08:06:40;;;;;;;14.57;7.93;;;;;;;;;;5027325;28;20453;-71
2023/04/18 08:09:07;;;;;;;14.70;8.45;;;;;;;;;;5026729;28;20061;-71
2023/04/18 08:11:34;;;;;;;12.88;8.10;;;;;;;;;;5026578;28;20420;-71
2023/04/18 08:14:00;;;;;;;12.73;8.40;;;;;;;;;;5027774;28;20060;-71
2023/04/18 08:16:27;;;;;;;11.95;8.25;;;;;;;;;;5026449;28;20552;-71
2023/04/18 08:18:53;;;;;;;13.70;8.63;;;;;;;;;;5027522;28;20153;-71
2023/04/18 08:21:19;;;;;;;14.63;7.63;;;;;;;;;;5028585;28;20040;-70
2023/04/18 08:23:46;;;;;;;15.68;8.02;;;;;;;;;;5041429;28;20057;-71
2023/04/18 08:26:12;;;;;;;9.85;7.45;;;;;;;;;;5019328;28;20095;-71
2023/04/18 08:28:38;;;;;;;10.90;8.20;;;;;;;;;;5021962;28;20045;-71
2023/04/18 08:31:04;;;;;;;11.15;7.65;;;;;;;;;;5024412;28;20029;-71
2023/04/18 08:33:30;;;;;;;12.18;7.50;;;;;;;;;;5027360;28;20041;-71
2023/04/18 08:35:56;;;;;;;10.07;7.43;;;;;;;;;;5025234;28;20162;-71
2023/04/18 08:38:22;;;;;;;14.55;8.13;;;;;;;;;;5026443;28;20956;-71
2023/04/18 08:40:49;;;;;;;12.27;7.80;;;;;;;;;;5025266;28;20455;-71
2023/04/18 08:43:15;;;;;;;10.63;7.75;;;;;;;;;;5024123;28;20045;-71
2023/04/18 08:45:41;;;;;;;10.20;7.18;;;;;;;;;;5024096;28;20051;-71
2023/04/18 08:48:12;;;;;;;12.18;7.78;;;;;;;;;;5021203;28;20163;-70
2023/04/18 08:50:38;;;;;;;11.50;7.15;;;;;;;;;;5024692;28;20050;-70
2023/04/18 08:53:04;;;;;;;10.18;7.10;;;;;;;;;;5021695;28;21955;-71
2023/04/18 08:55:32;;;;;;;13.88;7.13;;;;;;;;;;5029330;28;20056;-70
2023/04/18 08:57:59;;;;;;;9.80;7.55;;;;;;;;;;5027002;28;20052;-70
2023/04/18 09:00:26;;;;;;;12.55;6.78;;;;;;;;;;5028387;28;20446;-70
2023/04/18 09:02:57;;;;;;;9.77;6.65;;;;;;;;;;5026230;28;20170;-70
2023/04/18 09:05:25;;;;;;;14.30;6.93;;;;;;;;;;5023967;28;20048;-71
2023/04/18 09:07:52;;;;;;;11.77;7.13;;;;;;;;;;5026551;28;20049;-70
2023/04/18 09:10:39;;;;;;;10.15;7.15;;;;;;;;;;5025050;28;20044;-70
2023/04/18 09:13:06;;;;;;;9.07;6.55;;;;;;;;;;5019741;28;20804;-70
2023/04/18 09:15:33;;;;;;;12.55;7.45;;;;;;;;;;5024429;28;20044;-70
2023/04/18 09:18:01;;;;;;;7.68;6.15;;;;;;;;;;5041827;28;20087;-70
2023/04/18 09:20:33;;;;;;;7.00;5.22;;;;;;;;;;5023552;28;20090;-71
2023/04/18 09:22:59;;;;;;;9.05;5.30;;;;;;;;;;5020594;28;20048;-71
2023/04/18 09:25:26;;;;;;;8.52;6.05;;;;;;;;;;5020414;28;20151;-70
2023/04/18 09:27:52;;;;;;;8.70;5.78;;;;;;;;;;5024611;28;20146;-72
2023/04/18 09:30:31;;;;;;;6.15;5.03;;;;;;;;;;5023601;28;21099;-72
2023/04/18 09:33:01;;;;;;;6.80;5.57;;;;;;;;;;5027625;28;20071;-71
2023/04/18 09:35:27;;;;;;;6.90;5.35;;;;;;;;;;5027883;28;20140;-71
2023/04/18 09:37:53;;;;;;;7.07;5.40;;;;;;;;;;5027743;28;20175;-72
2023/04/18 09:40:19;;;;;;;9.27;5.50;;;;;;;;;;5026015;28;20045;-72
2023/04/18 09:42:46;;;;;;;11.25;4.82;;;;;;;;;;5027105;28;20055;-73
2023/04/18 09:45:14;;;;;;;6.50;4.53;;;;;;;;;;5027488;28;20056;-72
2023/04/18 09:47:40;;;;;;;6.72;4.82;;;;;;;;;;5029197;28;20066;-72
2023/04/18 09:50:07;;;;;;;6.57;4.90;;;;;;;;;;5026535;28;20049;-72
2023/04/18 09:52:34;;;;;;;9.80;4.82;;;;;;;;;;5043975;28;20041;-71
2023/04/18 09:55:01;;;;;;;8.45;5.90;;;;;;;;;;5045625;28;20036;-72
2023/04/18 09:57:29;;;;;;;8.18;5.20;;;;;;;;;;5018810;28;20064;-71
2023/04/18 10:00:01;;;;;;;5.88;5.07;;;;;;;;;;5040520;28;20045;-72
2023/04/18 10:02:28;;;;;;;6.13;4.60;;;;;;;;;;5007660;28;20048;-71
2023/04/18 10:04:55;;;;;;;6.32;4.82;;;;;;;;;;5017035;28;20060;-71
2023/04/18 10:07:22;;;;;;;8.38;4.93;;;;;;;;;;5043307;28;20124;-72
2023/04/18 10:09:49;;;;;;;7.97;4.72;;;;;;;;;;5044553;28;20040;-72
2023/04/18 10:12:16;;;;;;;6.10;5.05;;;;;;;;;;5022655;28;20106;-71
2023/04/18 10:14:42;;;;;;;10.23;4.90;;;;;;;;;;5021568;28;20052;-72
2023/04/18 10:17:10;;;;;;;5.57;4.40;;;;;;;;;;5019528;28;20048;-71
2023/04/18 10:19:40;;;;;;;6.15;4.95;;;;;;;;;;5041870;28;20044;-71
2023/04/18 10:22:07;;;;;;;6.03;4.15;;;;;;;;;;5038287;28;20059;-71
2023/04/18 10:24:48;;;;;;;7.07;4.20;;;;;;;;;;5035239;28;20048;-71
2023/04/18 10:27:15;;;;;;;5.25;4.68;;;;;;;;;;5021968;28;20087;-72
2023/04/18 10:29:51;;;;;;;6.82;4.40;;;;;;;;;;5023631;28;20049;-72
2023/04/18 10:32:19;;;;;;;4.88;3.70;;;;;;;;;;5021084;28;20067;-72
2023/04/18 10:34:53;;;;;;;4.45;4.05;;;;;;;;;;5021983;28;20076;-72
2023/04/18 10:37:19;;;;;;;5.75;4.75;;;;;;;;;;5043926;28;20508;-72
2023/04/18 10:39:49;;;;;;;6.82;4.43;;;;;;;;;;5021290;28;20033;-72
2023/04/18 10:42:16;;;;;;;6.18;4.43;;;;;;;;;;5021886;28;20141;-73
2023/04/18 10:44:42;;;;;;;5.85;4.60;;;;;;;;;;5021249;28;20052;-72
2023/04/18 10:47:08;;;;;;;3.92;3.53;;;;;;;;;;5040538;28;20036;-72
2023/04/18 10:49:37;;;;;;;5.93;3.80;;;;;;;;;;5022670;28;20040;-72
2023/04/18 10:52:07;;;;;;;11.55;3.50;;;;;;;;;;5003408;28;20067;-72
2023/04/18 10:54:39;;;;;;;5.22;3.78;;;;;;;;;;5039359;28;20464;-72
2023/04/18 10:57:09;;;;;;;3.30;3.00;;;;;;;;;;5036961;28;20067;-73
2023/04/18 10:59:39;;;;;;;3.92;2.92;;;;;;;;;;5024967;28;20092;-72
2023/04/18 11:02:21;;;;;;;5.25;3.30;;;;;;;;;;5044560;28;20090;-73
2023/04/18 11:04:54;;;;;;;5.18;3.20;;;;;;;;;;5042457;28;20102;-73
2023/04/18 11:07:36;;;;;;;4.23;3.27;;;;;;;;;;5044639;28;20065;-73
2023/04/18 11:10:03;;;;;;;5.38;3.38;;;;;;;;;;5028045;28;20170;-73
2023/04/18 11:12:31;;;;;;;3.95;3.08;;;;;;;;;;5047484;28;20040;-72
2023/04/18 11:14:57;;;;;;;5.90;3.92;;;;;;;;;;5043881;28;20052;-72
2023/04/18 11:17:25;;;;;;;3.85;3.33;;;;;;;;;;5025183;28;20048;-73
2023/04/18 11:19:59;;;;;;;3.20;2.90;;;;;;;;;;5042325;28;20113;-72
2023/04/18 11:22:26;;;;;;;5.40;2.90;;;;;;;;;;5030051;28;20044;-72
2023/04/18 11:24:52;;;;;;;5.95;3.67;;;;;;;;;;5046407;28;20083;-73
2023/04/18 11:27:18;;;;;;;3.72;2.95;;;;;;;;;;5043291;28;20049;-72
2023/04/18 11:29:44;;;;;;;6.18;3.22;;;;;;;;;;5025211;28;20048;-71
2023/04/18 11:32:10;;;;;;;4.20;3.35;;;;;;;;;;5024805;28;20443;-71
2023/04/18 11:34:36;;;;;;;4.25;3.35;;;;;;;;;;5037884;28;20049;-71
2023/04/18 11:37:06;;;;;;;3.38;3.08;;;;;;;;;;5021604;28;20155;-72
2023/04/18 11:39:35;;;;;;;3.55;3.22;;;;;;;;;;5044663;28;20799;-71
2023/04/18 11:42:02;;;;;;;4.22;3.40;;;;;;;;;;5049124;28;20067;-73
2023/04/18 11:44:28;;;;;;;4.60;4.20;;;;;;;;;;5047749;28;20118;-73
2023/04/18 11:46:54;;;;;;;13.15;5.00;;;;;;;;;;5025677;28;20049;-72
2023/04/18 11:49:24;;;;;;;11.40;4.60;;;;;;;;;;5023640;28;21398;-72
2023/04/18 11:51:50;;;;;;;9.70;4.95;;;;;;;;;;5040616;28;20044;-72
2023/04/18 11:54:36;;;;;;;4.82;3.85;;;;;;;;;;5023847;28;20046;-73
2023/04/18 11:57:02;;;;;;;5.65;4.25;;;;;;;;;;5043296;28;20148;-72
2023/04/18 11:59:30;;;;;;;5.43;4.82;;;;;;;;;;5044610;28;20222;-73
2023/04/18 12:02:03;;;;;;;6.60;5.25;;;;;;;;;;5026738;28;20032;-72
2023/04/18 12:04:29;;;;;;;7.97;4.80;;;;;;;;;;5025437;28;21021;-72
2023/04/18 12:06:56;;;;;;;5.75;4.72;;;;;;;;;;5044571;28;20048;-72
2023/04/18 12:09:26;;;;;;;6.63;4.57;;;;;;;;;;5025734;28;20140;-72
2023/04/18 12:12:02;;;;;;;5.55;4.32;;;;;;;;;;5023410;28;20076;-72
2023/04/18 12:14:29;;;;;;;5.85;4.07;;;;;;;;;;5045844;28;20036;-72
2023/04/18 12:16:55;;;;;;;7.40;4.35;;;;;;;;;;5027365;28;20048;-70
2023/04/18 12:19:29;;;;;;;7.45;4.40;;;;;;;;;;5045262;28;20044;-71
2023/04/18 12:21:55;;;;;;;5.35;4.40;;;;;;;;;;5041334;28;20158;-71
2023/04/18 12:24:23;;;;;;;5.00;4.50;;;;;;;;;;5030183;28;20080;-72
2023/04/18 12:26:50;;;;;;;8.10;4.35;;;;;;;;;;5046076;28;20044;-71
2023/04/18 12:29:16;;;;;;;5.30;4.47;;;;;;;;;;5043005;28;20086;-71
2023/04/18 12:31:42;;;;;;;6.72;4.38;;;;;;;;;;5002865;28;20532;-71
2023/04/18 12:34:08;;;;;;;5.85;4.40;;;;;;;;;;5024075;28;20052;-71
2023/04/18 12:36:35;;;;;;;5.55;4.40;;;;;;;;;;5040760;28;20219;-71
2023/04/18 12:39:01;;;;;;;7.47;4.55;;;;;;;;;;5046561;28;20090;-72
2023/04/18 12:41:27;;;;;;;6.20;4.93;;;;;;;;;;5044074;28;20809;-72
2023/04/18 12:43:53;;;;;;;8.07;5.00;;;;;;;;;;5025668;28;20055;-72
2023/04/18 12:46:21;;;;;;;9.48;5.03;;;;;;;;;;5046226;28;20074;-73
2023/04/18 12:48:48;;;;;;;6.28;5.68;;;;;;;;;;5028696;28;20102;-72
2023/04/18 12:51:14;;;;;;;7.18;5.85;;;;;;;;;;5047504;28;20045;-71
2023/04/18 12:53:40;;;;;;;8.25;6.18;;;;;;;;;;5028424;28;20036;-71
2023/04/18 12:56:06;;;;;;;11.52;6.53;;;;;;;;;;5048287;28;20055;-71
2023/04/18 12:58:32;;;;;;;9.73;6.80;;;;;;;;;;5044975;28;20048;-71
2023/04/18 13:00:58;;;;;;;7.50;6.63;;;;;;;;;;5042846;28;20044;-72
2023/04/18 13:03:25;;;;;;;10.00;6.22;;;;;;;;;;5019316;28;20635;-71
2023/04/18 13:05:54;;;;;;;7.40;6.60;;;;;;;;;;5041318;28;20052;-72
2023/04/18 13:08:21;;;;;;;9.02;6.50;;;;;;;;;;5041588;28;20052;-72
2023/04/18 13:10:47;;;;;;;10.43;6.55;;;;;;;;;;5041816;28;20036;-72
2023/04/18 13:13:13;;;;;;;11.07;6.50;;;;;;;;;;5003834;28;20618;-72
2023/04/18 13:15:40;;;;;;;9.98;6.80;;;;;;;;;;5041396;28;20376;-72
2023/04/18 13:18:06;;;;;;;11.18;6.45;;;;;;;;;;5025363;28;20083;-72
2023/04/18 13:20:32;;;;;;;8.98;7.75;;;;;;;;;;5047526;28;20041;-72
2023/04/18 13:22:58;;;;;;;13.23;7.63;;;;;;;;;;5047795;28;20047;-72
2023/04/18 13:25:25;;;;;;;11.50;8.05;;;;;;;;;;5045238;28;20052;-70
2023/04/18 13:27:51;;;;;;;9.50;7.88;;;;;;;;;;5024616;28;20166;-72
2023/04/18 13:30:17;;;;;;;8.82;7.25;;;;;;;;;;5043237;28;20044;-73
2023/04/18 13:32:44;;;;;;;9.25;7.97;;;;;;;;;;5044913;28;20123;-73
2023/04/18 13:35:11;;;;;;;15.88;9.68;;;;;;;;;;5042617;28;20051;-73
2023/04/18 13:37:37;;;;;;;15.10;8.90;;;;;;;;;;5043906;28;20490;-73
2023/04/18 13:40:05;;;;;;;14.25;8.70;;;;;;;;;;5044819;28;20043;-73
2023/04/18 13:42:31;;;;;;;14.57;9.43;;;;;;;;;;5044609;28;20055;-72
2023/04/18 13:44:58;;;;;;;12.70;8.52;;;;;;;;;;5043751;28;20070;-73
2023/04/18 13:47:25;;;;;;;11.15;8.32;;;;;;;;;;5026145;28;20492;-73
2023/04/18 13:49:51;;;;;;;11.68;7.80;;;;;;;;;;5043792;28;20890;-73
2023/04/18 13:52:17;;;;;;;11.57;8.18;;;;;;;;;;5025922;28;20213;-73
2023/04/18 13:54:47;;;;;;;8.80;7.90;;;;;;;;;;5042078;28;20040;-73
2023/04/18 13:57:13;;;;;;;9.90;7.80;;;;;;;;;;5039127;28;20052;-73
2023/04/18 13:59:39;;;;;;;13.48;8.63;;;;;;;;;;5044270;28;20139;-73
2023/04/18 14:02:06;;;;;;;8.55;7.15;;;;;;;;;;5042848;28;20075;-73
2023/04/18 14:04:32;;;;;;;9.70;8.02;;;;;;;;;;5041616;28;20051;-73
2023/04/18 14:06:58;;;;;;;9.55;7.30;;;;;;;;;;5040976;28;20148;-71
2023/04/18 14:09:25;;;;;;;8.82;7.93;;;;;;;;;;5022966;28;20664;-71
2023/04/18 14:11:51;;;;;;;10.48;9.40;;;;;;;;;;5039143;28;20202;-71
2023/04/18 14:14:18;;;;;;;12.43;9.30;;;;;;;;;;5042919;28;20051;-72
2023/04/18 14:16:44;;;;;;;13.40;10.02;;;;;;;;;;5019553;28;22030;-72
2023/04/18 14:19:11;;;;;;;13.93;10.02;;;;;;;;;;5023066;28;20040;-72
2023/04/18 14:21:37;;;;;;;11.85;9.23;;;;;;;;;;5042882;28;20064;-72
2023/04/18 14:24:04;;;;;;;10.68;9.57;;;;;;;;;;5043671;28;20059;-72
2023/04/18 14:26:30;;;;;;;11.05;9.48;;;;;;;;;;5021089;28;20047;-73
2023/04/18 14:28:56;;;;;;;12.75;9.32;;;;;;;;;;5024336;28;20122;-71
2023/04/18 14:31:22;;;;;;;13.48;8.98;;;;;;;;;;5044540;28;20048;-73